createdAt,value
2022-09-14T00:01:49.041Z,99628.51
2022-09-14T00:04:20.511Z,99623.39
2022-09-14T00:06:49.969Z,99631.23
2022-09-14T00:09:21.828Z,99627.72
2022-09-14T00:11:51.751Z,99621.50
2022-09-14T00:14:21.591Z,99626.09
2022-09-14T00:16:52.252Z,99626.09
2022-09-14T00:19:28.260Z,99634.17
2022-09-14T00:22:01.067Z,99634.17
2022-09-14T00:24:35.302Z,99633.65
2022-09-14T00:27:04.674Z,99640.39
2022-09-14T00:29:33.703Z,99632.02
2022-09-14T00:32:03.295Z,99630.41
2022-09-14T00:34:32.811Z,99629.84
2022-09-14T00:37:01.857Z,99639.83
2022-09-14T00:39:30.844Z,99644.70
2022-09-14T00:41:59.828Z,99644.16
2022-09-14T00:44:31.717Z,99644.42
2022-09-14T00:47:03.951Z,99646.32
2022-09-14T00:49:38.606Z,99650.11
2022-09-14T00:52:26.200Z,99650.92
2022-09-14T00:55:00.844Z,99642.53
2022-09-14T00:57:33.053Z,99651.98
2022-09-14T01:00:02.421Z,99655.73
2022-09-14T01:02:31.954Z,99657.39
2022-09-14T01:05:01.163Z,99653.62
2022-09-14T01:07:36.005Z,99660.34
2022-09-14T01:10:07.926Z,99654.67
2022-09-14T01:13:01.119Z,99659.00
2022-09-14T01:15:32.961Z,99655.22
2022-09-14T01:18:08.544Z,99659.27
2022-09-14T01:20:40.400Z,99660.63
2022-09-14T01:23:27.065Z,99662.80
2022-09-14T01:26:07.532Z,99674.94
2022-09-14T01:28:58.689Z,99674.94
2022-09-14T01:31:51.448Z,99664.94
2022-09-14T01:34:44.395Z,99662.78
2022-09-14T01:37:16.290Z,99659.27
2022-09-14T01:39:54.359Z,99659.27
2022-09-14T01:42:26.372Z,99662.77
2022-09-14T01:45:01.277Z,99662.77
2022-09-14T01:47:33.116Z,99660.62
2022-09-14T01:50:05.773Z,99651.98
2022-09-14T01:52:46.395Z,99663.58
2022-09-14T01:55:18.256Z,99663.55
2022-09-14T01:57:55.742Z,99660.85
2022-09-14T02:00:24.811Z,99665.09
2022-09-14T02:03:05.728Z,99667.52
2022-09-14T02:05:40.711Z,99667.52
2022-09-14T02:08:10.086Z,99668.13
2022-09-14T02:10:39.239Z,99676.15
2022-09-14T02:13:09.760Z,99680.81
2022-09-14T02:15:40.104Z,99677.56
2022-09-14T02:18:09.050Z,99684.30
2022-09-14T02:21:02.690Z,99681.28
2022-09-14T02:23:32.007Z,99695.77
2022-09-14T02:26:01.053Z,99693.06
2022-09-14T02:28:30.627Z,99698.30
2022-09-14T02:31:05.567Z,99705.52
2022-09-14T02:34:00.221Z,99700.48
2022-09-14T02:36:44.335Z,99698.78
2022-09-14T02:39:30.956Z,99700.91
2022-09-14T02:42:05.237Z,99702.55
2022-09-14T02:44:48.979Z,99700.09
2022-09-14T02:47:23.661Z,99702.77
2022-09-14T02:50:23.138Z,99702.77
2022-09-14T02:52:54.969Z,99690.77
2022-09-14T02:55:26.820Z,99695.91
2022-09-14T02:58:04.023Z,99706.19
2022-09-14T03:00:36.864Z,99702.17
2022-09-14T03:03:07.941Z,99702.17
2022-09-14T03:05:37.467Z,99709.56
2022-09-14T03:08:06.672Z,99710.48
2022-09-14T03:10:35.771Z,99718.48
2022-09-14T03:13:04.910Z,99714.97
2022-09-14T03:15:34.314Z,99722.58
2022-09-14T03:18:03.387Z,99721.94
2022-09-14T03:20:34.334Z,99724.86
2022-09-14T03:23:05.160Z,99731.91
2022-09-14T03:25:37.266Z,99737.67
2022-09-14T03:28:07.007Z,99734.95
2022-09-14T03:30:36.451Z,99733.00
2022-09-14T03:33:05.649Z,99733.00
2022-09-14T03:35:35.800Z,99742.13
2022-09-14T03:38:04.782Z,99743.86
2022-09-14T03:40:34.200Z,99746.86
2022-09-14T03:43:03.261Z,99742.79
2022-09-14T03:45:32.279Z,99739.51
2022-09-14T03:48:01.288Z,99740.38
2022-09-14T03:50:30.277Z,99742.23
2022-09-14T03:52:59.815Z,99749.72
2022-09-14T03:55:28.822Z,99748.74
2022-09-14T03:57:58.060Z,99743.64
2022-09-14T04:00:26.995Z,99743.64
2022-09-14T04:02:56.182Z,99741.73
2022-09-14T04:05:25.413Z,99753.87
2022-09-14T04:07:54.439Z,99751.16
2022-09-14T04:10:23.438Z,99751.16
2022-09-14T04:12:52.414Z,99756.71
2022-09-14T04:15:21.383Z,99769.25
2022-09-14T04:17:51.487Z,99769.25
2022-09-14T04:20:20.850Z,99774.07
2022-09-14T04:22:49.809Z,99778.13
2022-09-14T04:25:19.068Z,99778.13
2022-09-14T04:27:58.951Z,99781.14
2022-09-14T04:30:18.817Z,99779.77
2022-09-14T04:32:47.864Z,99779.77
2022-09-14T04:35:17.195Z,99785.36
2022-09-14T04:37:46.239Z,99786.76
2022-09-14T04:40:15.612Z,99796.27
2022-09-14T04:42:44.657Z,99791.93
2022-09-14T04:45:13.695Z,99798.05
2022-09-14T04:47:42.720Z,99798.05
2022-09-14T04:50:11.894Z,99806.20
2022-09-14T04:52:40.978Z,99810.52
2022-09-14T04:55:10.608Z,99810.52
2022-09-14T04:57:39.578Z,99805.98
2022-09-14T05:00:09.810Z,99810.84
2022-09-14T05:02:41.522Z,99810.84
2022-09-14T05:05:10.899Z,99795.50
2022-09-14T05:07:39.951Z,99795.69
2022-09-14T05:10:09.502Z,99805.21
2022-09-14T05:12:38.545Z,99797.93
2022-09-14T05:15:08.494Z,99790.39
2022-09-14T05:17:37.496Z,99792.03
2022-09-14T05:20:07.131Z,99795.27
2022-09-14T05:22:36.154Z,99795.80
2022-09-14T05:25:05.655Z,99795.24
2022-09-14T05:27:34.528Z,99804.69
2022-09-14T05:30:03.580Z,99801.52
2022-09-14T05:32:32.544Z,99799.59
2022-09-14T05:35:01.571Z,99810.16
2022-09-14T05:37:30.584Z,99809.06
2022-09-14T05:39:59.611Z,99809.32
2022-09-14T05:42:28.634Z,99807.94
2022-09-14T05:44:57.697Z,99810.16
2022-09-14T05:47:26.654Z,99810.97
2022-09-14T05:49:55.696Z,99814.21
2022-09-14T05:52:25.256Z,99826.61
2022-09-14T05:54:54.355Z,99827.70
2022-09-14T05:57:23.454Z,99828.23
2022-09-14T05:59:52.419Z,99821.48
2022-09-14T06:02:21.605Z,99821.48
2022-09-14T06:04:50.704Z,99825.25
2022-09-14T06:07:19.774Z,99839.55
2022-09-14T06:09:48.805Z,99839.55
2022-09-14T06:12:18.099Z,99845.53
2022-09-14T06:14:46.999Z,99840.12
2022-09-14T06:17:16.008Z,99845.26
2022-09-14T06:19:44.984Z,99854.42
2022-09-14T06:22:14.022Z,99849.84
2022-09-14T06:24:43.169Z,99859.02
2022-09-14T06:27:12.806Z,99856.59
2022-09-14T06:29:42.020Z,99856.30
2022-09-14T06:32:11.048Z,99856.30
2022-09-14T06:34:40.020Z,99857.66
2022-09-14T06:37:09.034Z,99857.66
2022-09-14T06:39:38.366Z,99866.03
2022-09-14T06:42:07.525Z,99853.03
2022-09-14T06:44:36.510Z,99862.53
2022-09-14T06:47:05.835Z,99859.80
2022-09-14T06:49:35.127Z,99859.80
2022-09-14T06:52:04.230Z,99850.86
2022-09-14T06:54:33.701Z,99857.86
2022-09-14T06:57:02.704Z,99862.95
2022-09-14T06:59:31.817Z,99862.95
2022-09-14T07:02:00.923Z,99865.98
2022-09-14T07:04:30.309Z,99871.63
2022-09-14T07:06:59.466Z,99871.63
2022-09-14T07:09:28.607Z,99877.16
2022-09-14T07:11:57.678Z,99873.72
2022-09-14T07:14:30.341Z,99891.75
2022-09-14T07:16:57.382Z,99891.58
2022-09-14T07:19:26.414Z,99891.58
2022-09-14T07:21:55.422Z,99900.80
2022-09-14T07:24:24.473Z,99900.20
2022-09-14T07:26:53.487Z,99901.77
2022-09-14T07:29:22.915Z,99897.02
2022-09-14T07:31:55.615Z,99897.02
2022-09-14T07:34:25.649Z,99894.34
2022-09-14T07:36:54.638Z,99894.34
2022-09-14T07:39:23.735Z,99884.38
2022-09-14T07:41:52.700Z,99889.88
2022-09-14T07:44:21.681Z,99889.41
2022-09-14T07:46:50.686Z,99889.41
2022-09-14T07:49:19.820Z,99897.31
2022-09-14T07:51:49.260Z,99897.31
2022-09-14T07:54:20.092Z,99892.84
2022-09-14T07:56:50.394Z,99888.83
2022-09-14T07:59:36.563Z,99890.02
2022-09-14T08:01:50.482Z,99893.05
2022-09-14T08:04:19.693Z,99889.77
2022-09-14T08:06:48.771Z,99904.68
2022-09-14T08:09:17.906Z,99902.69
2022-09-14T08:11:46.859Z,99894.17
2022-09-14T08:14:15.941Z,99898.98
2022-09-14T08:16:45.020Z,99898.98
2022-09-14T08:19:17.361Z,99910.99
2022-09-14T08:21:47.723Z,99910.99
2022-09-14T08:24:20.233Z,99902.52
2022-09-14T08:26:50.579Z,99905.62
2022-09-14T08:29:20.985Z,99895.52
2022-09-14T08:31:52.237Z,99895.52
2022-09-14T08:34:21.924Z,99902.28
2022-09-14T08:36:51.504Z,99899.52
2022-09-14T08:39:21.093Z,99901.46
2022-09-14T08:41:56.028Z,99896.77
2022-09-14T08:44:57.003Z,99892.27
2022-09-14T08:47:40.157Z,99905.56
2022-09-14T08:50:18.486Z,99910.03
2022-09-14T08:52:55.661Z,99911.73
2022-09-14T08:55:36.581Z,99911.73
2022-09-14T08:58:20.826Z,99922.38
2022-09-14T09:01:19.084Z,99929.77
2022-09-14T09:03:56.921Z,99919.55
2022-09-14T09:06:48.466Z,99909.77
2022-09-14T09:09:32.601Z,99912.63
2022-09-14T09:12:02.263Z,99901.33
2022-09-14T09:14:40.314Z,99905.24
2022-09-14T09:17:21.173Z,99911.43
2022-09-14T09:20:12.339Z,99908.45
2022-09-14T09:23:02.350Z,99907.83
2022-09-14T09:25:34.193Z,99924.84
2022-09-14T09:28:06.052Z,99916.16
2022-09-14T09:30:35.068Z,99912.75
2022-09-14T09:33:04.792Z,99915.88
2022-09-14T09:35:34.732Z,99914.12
2022-09-14T09:38:03.732Z,99918.66
2022-09-14T09:40:43.308Z,99914.41
2022-09-14T09:43:28.719Z,99912.08
2022-09-14T09:46:08.693Z,99915.17
2022-09-14T09:48:43.562Z,99917.03
2022-09-14T09:51:24.055Z,99917.03
2022-09-14T09:54:01.038Z,99918.39
2022-09-14T09:56:33.125Z,99918.04
2022-09-14T09:59:02.315Z,99932.70
2022-09-14T10:01:34.692Z,99928.77
2022-09-14T10:04:18.329Z,99920.86
2022-09-14T10:06:50.068Z,99920.86
2022-09-14T10:09:30.099Z,99921.14
2022-09-14T10:12:04.656Z,99920.93
2022-09-14T10:14:40.685Z,99926.63
2022-09-14T10:17:21.506Z,99926.63
2022-09-14T10:19:53.352Z,99923.41
2022-09-14T10:22:31.559Z,99915.55
2022-09-14T10:25:02.843Z,99915.55
2022-09-14T10:27:40.475Z,99924.81
2022-09-14T10:30:18.766Z,99923.78
2022-09-14T10:32:59.886Z,99932.61
2022-09-14T10:35:52.887Z,99924.52
2022-09-14T10:38:51.732Z,99924.13
2022-09-14T10:41:43.819Z,99918.26
2022-09-14T10:44:32.407Z,99922.82
2022-09-14T10:47:13.276Z,99912.58
2022-09-14T10:50:05.428Z,99915.16
2022-09-14T10:52:39.881Z,99914.26
2022-09-14T10:55:17.699Z,99916.79
2022-09-14T10:57:49.628Z,99914.63
2022-09-14T11:00:21.768Z,99916.30
2022-09-14T11:03:02.862Z,99914.66
2022-09-14T11:05:40.670Z,99909.28
2022-09-14T11:08:15.414Z,99909.28
2022-09-14T11:11:11.203Z,99898.96
2022-09-14T11:13:46.156Z,99900.98
2022-09-14T11:16:27.198Z,99906.05
2022-09-14T11:19:34.123Z,99906.05
2022-09-14T11:22:08.711Z,99899.77
2022-09-14T11:24:46.526Z,99914.49
2022-09-14T11:27:37.670Z,99902.95
2022-09-14T11:30:18.439Z,99898.61
2022-09-14T11:32:56.109Z,99906.31
2022-09-14T11:35:30.671Z,99904.64
2022-09-14T11:38:02.530Z,99900.38
2022-09-14T11:40:40.220Z,99900.38
2022-09-14T11:43:15.144Z,99895.24
2022-09-14T11:45:55.546Z,99895.80
2022-09-14T11:48:45.402Z,99893.48
2022-09-14T11:51:13.026Z,99897.48
2022-09-14T11:53:44.863Z,99906.66
2022-09-14T11:56:29.216Z,99894.50
2022-09-14T11:59:00.957Z,99898.97
2022-09-14T12:01:33.252Z,99901.10
2022-09-14T12:04:10.962Z,99905.28
2022-09-14T12:06:42.995Z,99905.28
2022-09-14T12:09:25.308Z,99895.99
2022-09-14T12:11:58.606Z,99890.99
2022-09-14T12:14:30.547Z,99900.40
2022-09-14T12:17:40.779Z,99900.40
2022-09-14T12:19:57.766Z,99903.81
2022-09-14T12:22:35.603Z,99895.48
2022-09-14T12:25:13.670Z,99901.79
2022-09-14T12:27:45.235Z,99901.79
2022-09-14T12:30:43.080Z,99897.33
2022-09-14T12:33:35.677Z,99893.45
2022-09-14T12:36:22.531Z,99895.55
2022-09-14T12:38:54.374Z,99882.56
2022-09-14T12:41:26.226Z,99878.17
2022-09-14T12:43:58.633Z,99877.60
2022-09-14T12:46:36.914Z,99875.62
2022-09-14T12:49:17.831Z,99880.56
2022-09-14T12:51:51.907Z,99880.56
2022-09-14T12:54:26.285Z,99878.80
2022-09-14T12:57:10.372Z,99872.03
2022-09-14T12:59:54.170Z,99873.00
2022-09-14T13:02:48.590Z,99867.48
2022-09-14T13:05:24.042Z,99867.48
2022-09-14T13:07:54.703Z,99881.97
2022-09-14T13:10:41.620Z,99860.95
2022-09-14T13:13:22.354Z,99878.00
2022-09-14T13:16:03.471Z,99867.62
2022-09-14T13:18:37.646Z,99867.62
2022-09-14T13:21:25.135Z,99871.84
2022-09-14T13:23:54.152Z,99871.84
2022-09-14T13:26:26.102Z,99870.74
2022-09-14T13:28:57.587Z,99870.74
2022-09-14T13:31:35.585Z,99871.59
2022-09-14T13:34:05.797Z,99870.69
2022-09-14T13:36:37.691Z,99872.12
2022-09-14T13:39:08.278Z,99873.98
2022-09-14T13:41:40.199Z,99871.19
2022-09-14T13:44:09.254Z,99871.19
2022-09-14T13:46:38.283Z,99867.58
2022-09-14T13:49:09.043Z,99863.23
2022-09-14T13:51:38.011Z,99861.88
2022-09-14T13:54:27.772Z,99870.95
2022-09-14T13:57:18.237Z,99869.97
2022-09-14T14:00:20.342Z,99865.35
2022-09-14T14:02:54.700Z,99865.35
2022-09-14T14:05:29.767Z,99870.38
2022-09-14T14:08:01.287Z,99856.03
2022-09-14T14:10:39.154Z,99852.14
2022-09-14T14:13:08.133Z,99860.33
2022-09-14T14:15:43.063Z,99863.52
2022-09-14T14:18:34.487Z,99855.52
2022-09-14T14:21:25.732Z,99858.05
2022-09-14T14:24:12.601Z,99849.13
2022-09-14T14:26:28.988Z,99852.63
2022-09-14T14:29:00.889Z,99842.78
2022-09-14T14:31:29.970Z,99847.25
2022-09-14T14:33:59.418Z,99833.50
2022-09-14T14:36:28.583Z,99857.59
2022-09-14T14:38:58.761Z,99857.59
2022-09-14T14:46:25.357Z,99853.70
2022-09-14T14:48:54.409Z,99858.59
2022-09-14T14:51:23.464Z,99844.69
2022-09-14T14:53:52.657Z,99853.42
2022-09-14T14:56:21.729Z,99855.48
2022-09-14T14:58:51.016Z,99855.48
2022-09-14T15:01:20.232Z,99847.11
2022-09-14T15:03:49.685Z,99845.75
2022-09-14T15:06:24.155Z,99840.63
2022-09-14T15:08:57.396Z,99840.63
2022-09-14T15:11:27.489Z,99843.38
2022-09-14T15:13:56.495Z,99845.90
2022-09-14T15:16:25.616Z,99845.90
2022-09-14T15:18:54.692Z,99852.45
2022-09-14T15:21:24.015Z,99854.27
2022-09-14T15:23:53.052Z,99859.50
2022-09-14T15:26:22.016Z,99859.69
2022-09-14T15:28:51.888Z,99859.69
2022-09-14T15:31:21.213Z,99856.33
2022-09-14T15:33:50.567Z,99853.11
2022-09-14T15:36:47.752Z,99857.67
2022-09-14T15:39:17.092Z,99852.99
2022-09-14T15:41:46.174Z,99852.99
2022-09-14T15:44:15.874Z,99864.23
2022-09-14T15:46:47.086Z,99869.36
2022-09-14T15:49:21.161Z,99866.02
2022-09-14T15:51:52.613Z,99866.41
2022-09-14T15:54:26.493Z,99862.33
2022-09-14T15:57:00.883Z,99865.79
2022-09-14T15:59:30.492Z,99857.66
2022-09-14T16:01:59.591Z,99857.23
2022-09-14T16:04:28.932Z,99864.59
2022-09-14T16:06:57.994Z,99862.88
2022-09-14T16:09:27.081Z,99857.79
2022-09-14T16:12:00.906Z,99864.70
2022-09-14T16:14:27.002Z,99862.27
2022-09-14T16:16:56.163Z,99862.27
2022-09-14T16:19:25.658Z,99865.45
2022-09-14T16:21:54.705Z,99862.02
2022-09-14T16:24:25.503Z,99863.29
2022-09-14T16:26:55.560Z,99861.02
2022-09-14T16:29:24.808Z,99861.02
2022-09-14T16:31:54.271Z,99867.55
2022-09-14T16:34:28.939Z,99867.24
2022-09-14T16:36:58.931Z,99866.41
2022-09-14T16:39:34.525Z,99864.22
2022-09-14T16:42:04.087Z,99865.20
2022-09-14T16:44:33.294Z,99870.58
2022-09-14T16:47:02.325Z,99869.00
2022-09-14T16:49:31.410Z,99868.51
2022-09-14T16:52:03.325Z,99869.09
2022-09-14T16:54:32.461Z,99866.38
2022-09-14T16:57:01.494Z,99868.14
2022-09-14T16:59:30.592Z,99863.06
2022-09-14T17:02:00.050Z,99853.25
2022-09-14T17:04:29.164Z,99861.61
2022-09-14T17:06:58.408Z,99858.84
2022-09-14T17:09:29.534Z,99848.60
2022-09-14T17:11:59.386Z,99850.40
2022-09-14T17:14:31.604Z,99848.98
2022-09-14T17:17:01.786Z,99855.87
2022-09-14T17:19:31.112Z,99862.13
2022-09-14T17:22:01.083Z,99860.92
2022-09-14T17:24:30.107Z,99861.16
2022-09-14T17:26:59.016Z,99861.16
2022-09-14T17:29:28.871Z,99869.17
2022-09-14T17:31:58.390Z,99857.90
2022-09-14T17:34:27.532Z,99857.56
2022-09-14T17:36:56.639Z,99853.55
2022-09-14T17:39:26.280Z,99849.72
2022-09-14T17:41:55.316Z,99852.18
2022-09-14T17:44:26.045Z,99858.84
2022-09-14T17:46:55.160Z,99861.08
2022-09-14T17:49:25.085Z,99867.64
2022-09-14T17:51:54.069Z,99858.23
2022-09-14T17:54:23.368Z,99862.30
2022-09-14T17:56:52.803Z,99857.41
2022-09-14T17:59:22.549Z,99865.98
2022-09-14T18:01:51.925Z,99866.77
2022-09-14T18:04:21.040Z,99871.70
2022-09-14T18:06:50.619Z,99864.65
2022-09-14T18:09:22.334Z,99874.21
2022-09-14T18:11:52.298Z,99878.67
2022-09-14T18:14:21.564Z,99878.78
2022-09-14T18:16:50.938Z,99868.69
2022-09-14T18:19:19.921Z,99868.69
2022-09-14T18:21:52.410Z,99864.41
2022-09-14T18:24:20.430Z,99856.56
2022-09-14T18:26:49.619Z,99867.97
2022-09-14T18:29:21.450Z,99859.56
2022-09-14T18:31:51.845Z,99864.06
2022-09-14T18:34:22.041Z,99845.71
2022-09-14T18:36:52.832Z,99849.63
2022-09-14T18:39:21.933Z,99856.72
2022-09-14T18:41:54.629Z,99839.31
2022-09-14T18:44:24.712Z,99839.31
2022-09-14T18:46:54.128Z,99848.45
2022-09-14T18:49:23.280Z,99839.23
2022-09-14T18:51:52.542Z,99840.45
2022-09-14T18:54:27.315Z,99839.69
2022-09-14T18:56:52.649Z,99851.92
2022-09-14T18:59:21.836Z,99855.73
2022-09-14T19:01:50.916Z,99860.66
2022-09-14T19:04:20.218Z,99863.50
2022-09-14T19:06:49.367Z,99860.74
2022-09-14T19:09:18.426Z,99872.13
2022-09-14T19:11:47.533Z,99885.76
2022-09-14T19:14:17.709Z,99872.20
2022-09-14T19:16:46.762Z,99878.17
2022-09-14T19:19:17.434Z,99873.11
2022-09-14T19:21:46.671Z,99877.11
2022-09-14T19:24:18.075Z,99881.45
2022-09-14T19:26:49.661Z,99879.16
2022-09-14T19:29:22.093Z,99886.13
2022-09-14T19:31:52.255Z,99887.78
2022-09-14T19:34:22.878Z,99892.65
2022-09-14T19:36:53.847Z,99895.88
2022-09-14T19:39:24.682Z,99892.98
2022-09-14T19:41:54.162Z,99880.03
2022-09-14T19:44:23.468Z,99880.98
2022-09-14T19:46:52.859Z,99884.38
2022-09-14T19:49:24.599Z,99875.14
2022-09-14T19:51:54.489Z,99876.23
2022-09-14T19:54:23.529Z,99877.15
2022-09-14T19:56:52.530Z,99869.25
2022-09-14T19:59:21.924Z,99868.54
2022-09-14T20:01:51.367Z,99863.21
2022-09-14T20:04:20.507Z,99867.73
2022-09-14T20:06:49.587Z,99859.72
2022-09-14T20:09:21.687Z,99868.64
2022-09-14T20:11:52.805Z,99867.84
2022-09-14T20:14:24.102Z,99860.41
2022-09-14T20:16:56.291Z,99864.87
2022-09-14T20:19:28.067Z,99854.19
2022-09-14T20:21:57.371Z,99848.34
2022-09-14T20:24:30.873Z,99848.34
2022-09-14T20:27:02.445Z,99840.68
2022-09-14T20:29:34.293Z,99840.56
2022-09-14T20:32:05.622Z,99841.23
2022-09-14T20:34:34.869Z,99841.23
2022-09-14T20:37:03.943Z,99834.56
2022-09-14T20:39:34.729Z,99834.63
2022-09-14T20:42:03.935Z,99837.42
2022-09-14T20:44:33.369Z,99841.58
2022-09-14T20:47:02.428Z,99837.73
2022-09-14T20:49:31.674Z,99837.73
2022-09-14T20:52:02.341Z,99824.73
2022-09-14T20:54:31.441Z,99829.36
2022-09-14T20:59:31.141Z,99820.55
2022-09-14T21:02:04.647Z,99820.55
2022-09-14T21:04:30.769Z,99823.42
2022-09-14T21:06:59.759Z,99825.45
2022-09-14T21:09:29.829Z,99819.17
2022-09-14T21:11:13.204Z,99834.02
2022-09-14T21:11:58.940Z,99819.30
2022-09-14T21:14:28.914Z,99820.22
2022-09-14T21:16:58.943Z,99816.53
2022-09-14T21:19:29.512Z,99820.65
2022-09-14T21:21:58.464Z,99822.01
2022-09-14T21:24:27.706Z,99824.89
2022-09-14T21:26:57.726Z,99819.41
2022-09-14T21:29:26.765Z,99805.42
2022-09-14T21:31:56.166Z,99805.42
2022-09-14T21:34:25.234Z,99814.80
2022-09-14T21:36:54.692Z,99812.74
2022-09-14T21:39:25.782Z,99813.81
2022-09-14T21:41:59.170Z,99813.81
2022-09-14T21:44:35.342Z,99822.53
2022-09-14T21:47:05.789Z,99822.53
2022-09-14T21:49:34.997Z,99818.11
2022-09-14T21:52:04.264Z,99823.42
2022-09-14T21:54:33.744Z,99827.75
2022-09-14T21:57:02.751Z,99829.61
2022-09-14T21:59:31.815Z,99829.61
2022-09-14T22:02:01.350Z,99818.06
2022-09-14T22:04:30.427Z,99830.13
2022-09-14T22:06:59.502Z,99814.83
2022-09-14T22:09:30.198Z,99821.38
2022-09-14T22:11:59.319Z,99821.38
2022-09-14T22:14:30.414Z,99815.66
2022-09-14T22:16:59.470Z,99815.66
2022-09-14T22:19:33.105Z,99814.02
2022-09-14T22:22:04.011Z,99814.02
2022-09-14T22:24:38.086Z,99811.84
2022-09-14T22:27:09.117Z,99811.84
2022-09-14T22:29:40.825Z,99812.66
2022-09-14T22:32:12.158Z,99812.94
2022-09-14T22:34:49.500Z,99812.94
2022-09-14T22:37:16.974Z,99814.61
2022-09-14T22:39:47.121Z,99810.85
2022-09-14T22:42:16.279Z,99800.11
2022-09-14T22:44:45.355Z,99800.11
2022-09-14T22:47:14.900Z,99796.00
2022-09-14T22:49:43.967Z,99809.84
2022-09-14T22:52:13.514Z,99804.81
2022-09-14T22:54:42.623Z,99807.08
2022-09-14T22:57:11.825Z,99807.08
2022-09-14T22:59:40.823Z,99798.00
2022-09-14T23:02:09.887Z,99806.88
2022-09-14T23:04:38.923Z,99807.78
2022-09-14T23:07:08.439Z,99807.98
2022-09-14T23:09:37.686Z,99807.98
2022-09-14T23:12:06.708Z,99806.22
2022-09-14T23:14:35.675Z,99806.68
2022-09-14T23:17:04.752Z,99793.28
2022-09-14T23:19:33.978Z,99793.28
2022-09-14T23:22:03.217Z,99797.75
2022-09-14T23:24:32.200Z,99801.91
2022-09-14T23:27:01.400Z,99801.91
2022-09-14T23:29:30.396Z,99810.43
2022-09-14T23:31:59.387Z,99813.26
2022-09-14T23:34:28.559Z,99813.26
2022-09-14T23:36:57.720Z,99806.32
2022-09-14T23:39:26.861Z,99799.91
2022-09-14T23:41:56.012Z,99800.85
2022-09-14T23:44:25.198Z,99804.38
2022-09-14T23:46:54.390Z,99796.34
2022-09-14T23:49:23.291Z,99800.75
2022-09-14T23:51:52.372Z,99794.23
2022-09-14T23:54:21.690Z,99795.68
2022-09-14T23:56:50.879Z,99787.70
2022-09-14T23:59:19.843Z,99784.50
